createdAt,value
2023-05-10T00:02:01.901Z,20.77
2023-05-10T00:05:04.496Z,20.76
2023-05-10T00:08:06.587Z,20.73
2023-05-10T00:11:08.793Z,20.66
2023-05-10T00:14:11.936Z,20.60
2023-05-10T00:17:14.360Z,20.54
2023-05-10T00:20:16.629Z,20.56
2023-05-10T00:23:19.143Z,20.57
2023-05-10T00:26:21.361Z,20.22
2023-05-10T00:29:29.123Z,20.30
2023-05-10T00:32:31.108Z,20.47
2023-05-10T00:35:33.438Z,20.53
2023-05-10T00:38:35.459Z,20.51
2023-05-10T00:41:39.066Z,20.51
2023-05-10T00:44:42.739Z,20.53
2023-05-10T00:47:45.251Z,20.48
2023-05-10T00:50:47.656Z,20.46
2023-05-10T00:53:52.138Z,20.10
2023-05-10T00:56:54.966Z,20.27
2023-05-10T00:59:58.844Z,20.36
2023-05-10T01:03:01.680Z,20.43
2023-05-10T01:06:04.536Z,20.41
2023-05-10T01:09:07.605Z,20.46
2023-05-10T01:12:09.887Z,20.46
2023-05-10T01:15:13.412Z,20.44
2023-05-10T01:18:20.285Z,20.43
2023-05-10T01:21:38.901Z,20.41
2023-05-10T01:24:47.371Z,20.46
2023-05-10T01:28:04.594Z,20.43
2023-05-10T01:31:28.467Z,20.46
2023-05-10T01:34:36.844Z,20.43
2023-05-10T01:38:08.527Z,20.39
2023-05-10T01:41:28.972Z,20.37
2023-05-10T01:44:35.946Z,20.39
2023-05-10T01:48:04.313Z,20.39
2023-05-10T01:51:07.837Z,20.39
2023-05-10T01:54:12.573Z,20.37
2023-05-10T01:57:17.370Z,20.37
2023-05-10T02:00:20.484Z,20.39
2023-05-10T02:03:26.207Z,20.41
2023-05-10T02:06:28.723Z,20.43
2023-05-10T02:09:34.553Z,20.43
2023-05-10T02:12:38.778Z,20.44
2023-05-10T02:15:42.644Z,20.43
2023-05-10T02:18:46.068Z,20.40
2023-05-10T02:21:49.769Z,20.40
2023-05-10T02:24:52.017Z,20.43
2023-05-10T02:27:57.860Z,20.43
2023-05-10T02:31:03.544Z,20.41
2023-05-10T02:34:08.085Z,20.41
2023-05-10T02:37:11.031Z,20.16
2023-05-10T02:40:15.390Z,20.17
2023-05-10T02:43:19.576Z,20.27
2023-05-10T02:46:22.024Z,20.29
2023-05-10T02:49:24.090Z,20.26
2023-05-10T02:52:30.052Z,20.33
2023-05-10T02:55:39.889Z,20.36
2023-05-10T02:58:43.135Z,20.40
2023-05-10T03:01:45.261Z,20.10
2023-05-10T03:04:48.808Z,19.65
2023-05-10T03:07:51.994Z,17.35
2023-05-10T03:11:40.518Z,16.90
2023-05-10T03:14:58.554Z,16.52
2023-05-10T03:18:09.005Z,17.11
2023-05-10T03:21:13.906Z,16.63
2023-05-10T03:24:19.978Z,17.51
2023-05-10T03:27:27.184Z,17.21
2023-05-10T03:30:30.936Z,16.80
2023-05-10T03:33:33.639Z,15.73
2023-05-10T03:36:36.249Z,16.11
2023-05-10T03:39:38.618Z,17.53
2023-05-10T03:42:43.021Z,16.49
2023-05-10T03:45:45.269Z,17.41
2023-05-10T03:48:47.216Z,17.81
2023-05-10T03:51:49.531Z,17.81
2023-05-10T03:54:51.817Z,17.19
2023-05-10T03:57:55.102Z,15.88
2023-05-10T04:00:58.254Z,16.63
2023-05-10T04:04:00.837Z,16.58
2023-05-10T04:07:04.163Z,17.07
2023-05-10T04:10:06.959Z,17.71
2023-05-10T04:13:08.989Z,18.43
2023-05-10T04:16:11.368Z,18.77
2023-05-10T04:19:13.412Z,18.60
2023-05-10T04:22:16.078Z,18.86
2023-05-10T04:25:18.216Z,19.12
2023-05-10T04:28:20.652Z,19.18
2023-05-10T04:31:23.217Z,18.80
2023-05-10T04:34:25.553Z,18.89
2023-05-10T04:37:27.487Z,18.80
2023-05-10T04:40:29.794Z,19.25
2023-05-10T04:43:31.734Z,19.54
2023-05-10T04:46:34.044Z,19.69
2023-05-10T04:49:36.189Z,19.57
2023-05-10T04:52:38.599Z,19.75
2023-05-10T04:55:40.746Z,19.82
2023-05-10T04:58:43.038Z,19.76
2023-05-10T05:01:45.135Z,19.55
2023-05-10T05:04:47.561Z,19.55
2023-05-10T05:07:49.631Z,19.62
2023-05-10T05:10:51.976Z,19.48
2023-05-10T05:13:54.238Z,19.55
2023-05-10T05:16:57.059Z,19.51
2023-05-10T05:19:59.492Z,19.39
2023-05-10T05:23:02.274Z,19.48
2023-05-10T05:26:04.607Z,19.55
2023-05-10T05:29:07.079Z,17.84
2023-05-10T05:32:09.784Z,17.74
2023-05-10T05:35:12.169Z,18.61
2023-05-10T05:38:14.234Z,18.81
2023-05-10T05:41:16.560Z,18.16
2023-05-10T05:44:18.506Z,18.57
2023-05-10T05:47:20.821Z,18.60
2023-05-10T05:50:22.876Z,18.94
2023-05-10T05:53:25.392Z,19.07
2023-05-10T05:56:28.093Z,18.97
2023-05-10T05:59:30.605Z,18.35
2023-05-10T06:02:32.712Z,18.18
2023-05-10T06:05:35.128Z,17.19
2023-05-10T06:08:37.101Z,16.65
2023-05-10T06:11:39.814Z,17.50
2023-05-10T06:14:41.899Z,17.88
2023-05-10T06:17:45.313Z,16.18
2023-05-10T06:20:47.451Z,15.71
2023-05-10T06:23:49.811Z,15.00
2023-05-10T06:26:52.065Z,15.12
2023-05-10T06:30:02.027Z,16.25
2023-05-10T06:33:11.525Z,16.04
2023-05-10T06:36:14.432Z,16.38
2023-05-10T06:39:17.129Z,16.66
2023-05-10T06:42:19.512Z,17.65
2023-05-10T06:45:22.534Z,17.89
2023-05-10T06:48:24.951Z,18.43
2023-05-10T06:51:27.195Z,18.56
2023-05-10T06:54:29.572Z,18.89
2023-05-10T06:57:32.433Z,19.20
2023-05-10T07:00:34.804Z,19.15
2023-05-10T07:03:36.908Z,18.52
2023-05-10T07:06:39.214Z,18.39
2023-05-10T07:09:41.516Z,18.97
2023-05-10T07:12:43.904Z,19.32
2023-05-10T07:15:46.124Z,19.32
2023-05-10T07:18:48.603Z,19.14
2023-05-10T07:21:51.934Z,18.74
2023-05-10T07:24:54.517Z,18.55
2023-05-10T07:27:56.938Z,18.84
2023-05-10T07:30:59.794Z,18.71
2023-05-10T07:34:01.962Z,19.21
2023-05-10T07:37:04.421Z,19.07
2023-05-10T07:40:07.332Z,19.45
2023-05-10T07:43:09.564Z,19.62
2023-05-10T07:46:12.058Z,19.69
2023-05-10T07:49:14.520Z,18.79
2023-05-10T07:52:16.504Z,19.34
2023-05-10T07:55:20.088Z,19.57
2023-05-10T07:58:22.248Z,19.81
2023-05-10T08:01:24.626Z,19.25
2023-05-10T08:04:27.084Z,19.76
2023-05-10T08:07:29.383Z,19.92
2023-05-10T08:10:31.410Z,20.19
2023-05-10T08:13:33.933Z,20.06
2023-05-10T08:16:36.232Z,20.27
2023-05-10T08:19:38.499Z,18.73
2023-05-10T08:22:40.636Z,18.84
2023-05-10T08:25:42.888Z,19.36
2023-05-10T08:28:44.861Z,19.86
2023-05-10T08:31:47.283Z,20.13
2023-05-10T08:34:49.337Z,20.32
2023-05-10T08:37:52.403Z,20.37
2023-05-10T08:40:59.737Z,20.53
2023-05-10T08:44:05.164Z,20.63
2023-05-10T08:47:08.221Z,20.78
2023-05-10T08:50:11.713Z,20.88
2023-05-10T08:53:16.093Z,20.56
2023-05-10T08:56:19.055Z,20.64
2023-05-10T08:59:21.116Z,20.46
2023-05-10T09:02:24.682Z,20.27
2023-05-10T09:05:27.773Z,20.48
2023-05-10T09:08:32.356Z,20.26
2023-05-10T09:11:34.872Z,20.44
2023-05-10T09:14:37.752Z,20.03
2023-05-10T09:17:41.982Z,20.13
2023-05-10T09:20:44.329Z,20.10
2023-05-10T09:23:48.696Z,19.69
2023-05-10T09:26:51.849Z,20.27
2023-05-10T09:29:56.148Z,20.47
2023-05-10T09:33:00.161Z,20.56
2023-05-10T09:36:09.417Z,20.50
2023-05-10T09:39:11.764Z,20.08
2023-05-10T09:42:13.771Z,20.05
2023-05-10T09:45:16.350Z,20.20
2023-05-10T09:48:18.903Z,20.39
2023-05-10T09:51:22.565Z,19.86
2023-05-10T09:54:25.243Z,20.16
2023-05-10T09:57:27.489Z,20.46
2023-05-10T10:00:35.378Z,20.20
2023-05-10T10:03:43.208Z,20.44
2023-05-10T10:06:45.748Z,20.10
2023-05-10T10:09:48.052Z,20.46
2023-05-10T10:12:50.154Z,19.73
2023-05-10T10:15:55.366Z,20.16
2023-05-10T10:18:57.994Z,19.92
2023-05-10T10:22:01.833Z,20.57
2023-05-10T10:25:06.013Z,20.90
2023-05-10T10:28:08.268Z,21.08
2023-05-10T10:31:35.857Z,21.22
2023-05-10T10:34:40.825Z,21.27
2023-05-10T10:37:47.198Z,21.31
2023-05-10T10:40:49.576Z,21.27
2023-05-10T10:44:24.665Z,20.84
2023-05-10T10:47:32.093Z,20.34
2023-05-10T10:50:44.840Z,19.08
2023-05-10T10:53:49.282Z,19.01
2023-05-10T10:57:16.919Z,19.61
2023-05-10T11:00:33.306Z,18.66
2023-05-10T11:03:35.665Z,16.83
2023-05-10T11:06:38.813Z,16.48
2023-05-10T11:09:41.445Z,17.44
2023-05-10T11:13:03.994Z,18.39
2023-05-10T11:16:23.956Z,18.69
2023-05-10T11:19:29.466Z,19.25
2023-05-10T11:22:52.380Z,17.70
2023-05-10T11:25:55.740Z,17.54
2023-05-10T11:29:03.137Z,17.19
2023-05-10T11:32:09.381Z,18.28
2023-05-10T11:35:13.274Z,19.71
2023-05-10T11:38:16.085Z,20.05
2023-05-10T11:41:23.086Z,19.97
2023-05-10T11:44:33.196Z,20.39
2023-05-10T11:47:37.083Z,21.04
2023-05-10T11:50:40.119Z,21.32
2023-05-10T11:53:43.216Z,21.48
2023-05-10T11:56:46.914Z,21.59
2023-05-10T11:59:49.108Z,21.66
2023-05-10T12:02:51.887Z,21.70
2023-05-10T12:05:54.784Z,21.78
2023-05-10T12:08:57.863Z,21.83
2023-05-10T12:12:00.319Z,21.89
2023-05-10T12:15:04.607Z,21.96
2023-05-10T12:18:07.309Z,21.94
2023-05-10T12:21:13.461Z,22.00
2023-05-10T12:24:20.660Z,22.00
2023-05-10T12:27:23.382Z,21.99
2023-05-10T12:30:30.293Z,20.81
2023-05-10T12:33:45.218Z,21.34
2023-05-10T12:36:52.167Z,21.67
2023-05-10T12:39:55.253Z,21.92
2023-05-10T12:42:58.150Z,21.96
2023-05-10T12:46:08.400Z,21.79
2023-05-10T12:49:11.169Z,22.04
2023-05-10T12:52:14.617Z,22.12
2023-05-10T12:55:16.972Z,22.09
2023-05-10T12:58:34.294Z,22.02
2023-05-10T13:01:38.134Z,21.83
2023-05-10T13:04:41.297Z,21.94
2023-05-10T13:07:45.442Z,21.60
2023-05-10T13:10:48.126Z,21.82
2023-05-10T13:13:50.304Z,21.49
2023-05-10T13:16:53.000Z,21.56
2023-05-10T13:19:55.969Z,21.73
2023-05-10T13:22:58.643Z,21.62
2023-05-10T13:26:01.518Z,21.17
2023-05-10T13:29:06.201Z,21.59
2023-05-10T13:32:08.572Z,21.42
2023-05-10T13:35:11.541Z,21.52
2023-05-10T13:38:15.588Z,21.69
2023-05-10T13:41:20.745Z,21.80
2023-05-10T13:44:23.040Z,21.21
2023-05-10T13:47:25.729Z,21.65
2023-05-10T13:50:28.744Z,21.73
2023-05-10T13:53:32.293Z,21.63
2023-05-10T13:56:34.663Z,21.80
2023-05-10T13:59:38.901Z,21.35
2023-05-10T14:02:41.775Z,21.31
2023-05-10T14:05:47.243Z,21.37
2023-05-10T14:08:50.948Z,21.65
2023-05-10T14:11:53.933Z,21.67
2023-05-10T14:14:56.709Z,21.56
2023-05-10T14:18:00.184Z,21.50
2023-05-10T14:21:05.872Z,21.62
2023-05-10T14:24:09.056Z,21.58
2023-05-10T14:27:16.389Z,21.65
2023-05-10T14:30:19.330Z,21.66
2023-05-10T14:33:22.424Z,21.55
2023-05-10T14:36:26.144Z,21.29
2023-05-10T14:39:30.823Z,20.84
2023-05-10T14:42:33.662Z,18.63
2023-05-10T14:45:36.197Z,18.29
2023-05-10T14:48:38.895Z,16.96
2023-05-10T14:51:41.173Z,16.80
2023-05-10T14:54:44.239Z,16.42
2023-05-10T14:57:48.431Z,17.35
2023-05-10T15:00:51.252Z,16.58
2023-05-10T15:03:58.009Z,17.35
2023-05-10T15:07:01.649Z,16.97
2023-05-10T15:10:04.157Z,18.59
2023-05-10T15:13:10.927Z,18.89
2023-05-10T15:16:13.018Z,19.68
2023-05-10T15:19:16.915Z,19.45
2023-05-10T15:22:25.104Z,19.54
2023-05-10T15:25:29.093Z,20.46
2023-05-10T15:28:32.557Z,20.53
2023-05-10T15:31:37.632Z,20.44
2023-05-10T15:34:40.622Z,20.37
2023-05-10T15:37:43.476Z,19.81
2023-05-10T15:40:46.590Z,18.73
2023-05-10T15:43:49.632Z,17.40
2023-05-10T15:47:10.214Z,16.76
2023-05-10T15:50:19.917Z,17.55
2023-05-10T15:54:05.222Z,17.34
2023-05-10T15:57:09.685Z,16.99
2023-05-10T16:00:13.482Z,17.13
2023-05-10T16:03:16.661Z,16.69
2023-05-10T16:06:19.321Z,16.58
2023-05-10T16:09:22.682Z,16.53
2023-05-10T16:12:26.032Z,16.56
2023-05-10T16:15:54.524Z,16.45
2023-05-10T16:18:58.080Z,16.38
2023-05-10T16:22:01.350Z,16.72
2023-05-10T16:25:03.804Z,17.02
2023-05-10T16:28:06.631Z,16.33
2023-05-10T16:31:09.187Z,16.65
2023-05-10T16:34:11.863Z,16.72
2023-05-10T16:37:14.437Z,16.52
2023-05-10T16:40:17.505Z,16.28
2023-05-10T16:43:19.972Z,16.17
2023-05-10T16:46:23.534Z,15.95
2023-05-10T16:49:27.856Z,16.02
2023-05-10T16:52:32.735Z,16.07
2023-05-10T16:55:34.931Z,16.04
2023-05-10T16:58:38.427Z,16.04
2023-05-10T17:01:40.654Z,16.18
2023-05-10T17:04:43.429Z,15.94
2023-05-10T17:07:46.800Z,15.90
2023-05-10T17:10:49.408Z,15.71
2023-05-10T17:13:52.742Z,15.44
2023-05-10T17:16:56.026Z,15.23
2023-05-10T17:19:59.151Z,15.19
2023-05-10T17:23:03.487Z,15.24
2023-05-10T17:26:07.469Z,15.12
2023-05-10T17:29:10.138Z,15.04
2023-05-10T17:32:13.251Z,15.07
2023-05-10T17:35:16.351Z,14.93
2023-05-10T17:38:19.418Z,15.19
2023-05-10T17:41:23.641Z,15.33
2023-05-10T17:44:26.456Z,16.89
2023-05-10T17:47:29.247Z,17.07
2023-05-10T17:50:33.357Z,17.51
2023-05-10T17:53:36.077Z,16.15
2023-05-10T17:56:38.424Z,15.57
2023-05-10T17:59:41.512Z,15.61
2023-05-10T18:02:44.285Z,15.36
2023-05-10T18:05:47.988Z,15.36
2023-05-10T18:08:50.039Z,15.97
2023-05-10T18:11:52.829Z,15.90
2023-05-10T18:14:54.944Z,16.92
2023-05-10T18:17:58.125Z,17.70
2023-05-10T18:21:01.152Z,18.18
2023-05-10T18:24:04.504Z,17.55
2023-05-10T18:27:08.373Z,16.76
2023-05-10T18:30:13.008Z,16.69
2023-05-10T18:33:15.488Z,16.63
2023-05-10T18:36:18.590Z,16.53
2023-05-10T18:39:21.041Z,16.26
2023-05-10T18:42:23.854Z,15.85
2023-05-10T18:45:26.515Z,15.39
2023-05-10T18:48:30.628Z,15.36
2023-05-10T18:51:33.215Z,15.37
2023-05-10T18:54:35.689Z,15.43
2023-05-10T18:57:43.824Z,15.19
2023-05-10T19:00:46.971Z,14.92
2023-05-10T19:03:55.048Z,15.00
2023-05-10T19:06:57.826Z,15.14
2023-05-10T19:09:59.998Z,15.20
2023-05-10T19:13:02.795Z,14.99
2023-05-10T19:16:07.598Z,15.06
2023-05-10T19:19:10.697Z,14.81
2023-05-10T19:22:14.243Z,14.71
2023-05-10T19:25:17.789Z,14.48
2023-05-10T19:28:22.867Z,14.35
2023-05-10T19:31:26.332Z,14.28
2023-05-10T19:34:29.982Z,14.20
2023-05-10T19:37:32.675Z,14.22
2023-05-10T19:40:35.198Z,14.28
2023-05-10T19:43:39.069Z,14.31
2023-05-10T19:46:41.712Z,14.08
2023-05-10T19:49:44.355Z,13.96
2023-05-10T19:52:46.939Z,13.93
2023-05-10T19:55:50.110Z,13.77
2023-05-10T19:58:52.411Z,13.90
2023-05-10T20:01:55.376Z,14.01
2023-05-10T20:04:57.829Z,14.54
2023-05-10T20:08:00.590Z,14.65
2023-05-10T20:11:06.460Z,14.52
2023-05-10T20:14:10.713Z,14.37
2023-05-10T20:17:13.461Z,14.34
2023-05-10T20:20:17.095Z,14.14
2023-05-10T20:23:20.122Z,14.11
2023-05-10T20:26:22.822Z,14.07
2023-05-10T20:29:25.064Z,14.00
2023-05-10T20:32:28.510Z,14.16
2023-05-10T20:35:34.544Z,14.35
2023-05-10T20:39:01.895Z,14.44
2023-05-10T20:42:05.870Z,14.30
2023-05-10T20:45:16.233Z,14.18
2023-05-10T20:48:58.119Z,14.35
2023-05-10T20:52:10.383Z,14.03
2023-05-10T20:55:18.208Z,14.13
2023-05-10T20:58:36.263Z,13.83
2023-05-10T21:01:38.950Z,14.27
2023-05-10T21:04:45.107Z,14.79
2023-05-10T21:07:47.871Z,14.75
2023-05-10T21:10:50.271Z,14.37
2023-05-10T21:13:52.798Z,14.20
2023-05-10T21:16:55.157Z,14.03
2023-05-10T21:19:57.627Z,13.57
2023-05-10T21:23:00.001Z,13.60
2023-05-10T21:26:04.840Z,13.49
2023-05-10T21:29:07.029Z,13.57
2023-05-10T21:32:09.892Z,13.78
2023-05-10T21:35:12.492Z,14.06
2023-05-10T21:38:16.007Z,14.28
2023-05-10T21:41:18.221Z,14.14
2023-05-10T21:44:21.157Z,14.40
2023-05-10T21:47:23.552Z,14.04
2023-05-10T21:50:27.634Z,14.20
2023-05-10T21:53:30.153Z,14.03
2023-05-10T21:56:33.676Z,15.30
2023-05-10T21:59:36.507Z,15.14
2023-05-10T22:02:39.563Z,15.26
2023-05-10T22:05:42.232Z,15.42
2023-05-10T22:08:46.142Z,15.90
2023-05-10T22:11:57.458Z,16.35
2023-05-10T22:15:10.185Z,16.77
2023-05-10T22:18:19.716Z,16.38
2023-05-10T22:21:24.788Z,17.54
2023-05-10T22:24:27.259Z,18.32
2023-05-10T22:27:30.130Z,18.79
2023-05-10T22:30:33.214Z,19.03
2023-05-10T22:33:35.771Z,19.18
2023-05-10T22:36:38.276Z,19.34
2023-05-10T22:39:48.893Z,19.54
2023-05-10T22:42:53.731Z,19.66
2023-05-10T22:45:56.480Z,19.17
2023-05-10T22:49:02.285Z,18.13
2023-05-10T22:52:04.862Z,18.81
2023-05-10T22:55:07.532Z,19.24
2023-05-10T22:58:10.403Z,19.58
2023-05-10T23:01:12.487Z,19.71
2023-05-10T23:04:16.230Z,19.73
2023-05-10T23:07:18.643Z,19.75
2023-05-10T23:10:21.420Z,19.76
2023-05-10T23:13:25.164Z,19.62
2023-05-10T23:16:28.026Z,18.04
2023-05-10T23:19:30.353Z,17.13
2023-05-10T23:22:33.461Z,17.68
2023-05-10T23:25:36.748Z,18.35
2023-05-10T23:28:39.290Z,18.56
2023-05-10T23:31:45.577Z,18.67
2023-05-10T23:34:48.254Z,17.91
2023-05-10T23:37:50.440Z,17.58
2023-05-10T23:40:53.380Z,17.17
2023-05-10T23:43:55.636Z,16.15
2023-05-10T23:46:58.202Z,16.02
2023-05-10T23:50:02.590Z,15.56
2023-05-10T23:53:05.159Z,15.81
2023-05-10T23:56:08.292Z,16.17
2023-05-10T23:59:10.976Z,16.49
